createdAt,value
2023-08-28T00:02:25.499Z,13.56
2023-08-28T00:04:52.285Z,13.54
2023-08-28T00:07:19.003Z,13.52
2023-08-28T00:09:45.575Z,13.49
2023-08-28T00:12:12.209Z,13.47
2023-08-28T00:14:38.872Z,13.43
2023-08-28T00:17:06.559Z,13.39
2023-08-28T00:19:33.229Z,13.36
2023-08-28T00:21:59.840Z,13.35
2023-08-28T00:24:26.369Z,13.32
2023-08-28T00:26:52.999Z,13.30
2023-08-28T00:29:19.620Z,13.28
2023-08-28T00:31:46.252Z,13.26
2023-08-28T00:34:12.833Z,13.24
2023-08-28T00:36:39.362Z,13.21
2023-08-28T00:39:06.015Z,13.20
2023-08-28T00:41:32.789Z,13.19
2023-08-28T00:43:59.494Z,13.16
2023-08-28T00:46:26.593Z,13.16
2023-08-28T00:48:53.368Z,13.14
2023-08-28T00:51:20.401Z,13.14
2023-08-28T00:53:46.996Z,13.13
2023-08-28T00:56:13.669Z,13.12
2023-08-28T00:58:40.537Z,13.13
2023-08-28T01:01:07.480Z,13.10
2023-08-28T01:03:34.139Z,13.09
2023-08-28T01:06:17.777Z,13.08
2023-08-28T01:11:41.905Z,13.08
2023-08-28T01:14:16.984Z,13.08
2023-08-28T01:16:46.180Z,13.08
2023-08-28T01:19:25.866Z,13.06
2023-08-28T01:22:00.180Z,13.06
2023-08-28T01:24:31.841Z,13.05
2023-08-28T01:26:59.540Z,13.03
2023-08-28T01:29:28.049Z,13.02
2023-08-28T01:31:54.762Z,13.00
2023-08-28T01:34:21.386Z,13.00
2023-08-28T01:36:54.371Z,13.00
2023-08-28T01:39:27.244Z,13.00
2023-08-28T01:41:54.505Z,13.01
2023-08-28T01:44:23.298Z,13.03
2023-08-28T01:46:50.371Z,13.03
2023-08-28T01:49:17.157Z,13.05
2023-08-28T01:51:44.624Z,13.05
2023-08-28T01:54:11.476Z,13.04
2023-08-28T01:56:38.093Z,13.02
2023-08-28T01:59:04.848Z,12.99
2023-08-28T02:01:31.550Z,12.98
2023-08-28T02:03:58.328Z,12.95
2023-08-28T02:06:25.221Z,12.92
2023-08-28T02:08:51.840Z,12.88
2023-08-28T02:11:18.694Z,12.87
2023-08-28T02:13:45.374Z,12.82
2023-08-28T02:16:12.136Z,12.80
2023-08-28T02:18:38.872Z,12.79
2023-08-28T02:21:05.534Z,12.76
2023-08-28T02:23:32.146Z,12.73
2023-08-28T02:25:58.737Z,12.72
2023-08-28T02:28:26.550Z,12.69
2023-08-28T02:30:53.372Z,12.66
2023-08-28T02:33:20.152Z,12.66
2023-08-28T02:35:46.818Z,12.63
2023-08-28T02:38:13.473Z,12.62
2023-08-28T02:40:40.693Z,12.59
2023-08-28T02:43:08.186Z,12.57
2023-08-28T02:45:41.322Z,12.55
2023-08-28T02:48:10.517Z,12.55
2023-08-28T02:50:37.682Z,12.54
2023-08-28T02:53:05.336Z,12.54
2023-08-28T02:55:39.638Z,12.53
2023-08-28T02:58:06.382Z,12.55
2023-08-28T03:00:34.366Z,12.55
2023-08-28T03:03:02.347Z,12.54
2023-08-28T03:05:29.341Z,12.51
2023-08-28T03:07:56.047Z,12.49
2023-08-28T03:10:23.619Z,12.46
2023-08-28T03:12:50.193Z,12.44
2023-08-28T03:15:16.889Z,12.42
2023-08-28T03:17:43.582Z,12.40
2023-08-28T03:20:11.267Z,12.40
2023-08-28T03:22:38.029Z,12.39
2023-08-28T03:25:06.182Z,12.38
2023-08-28T03:27:33.151Z,12.35
2023-08-28T03:29:59.802Z,12.35
2023-08-28T03:32:26.470Z,12.33
2023-08-28T03:34:53.088Z,12.33
2023-08-28T03:37:19.767Z,12.32
2023-08-28T03:39:46.381Z,12.32
2023-08-28T03:42:12.988Z,12.31
2023-08-28T03:44:39.627Z,12.31
2023-08-28T03:47:06.276Z,12.29
2023-08-28T03:49:32.912Z,12.28
2023-08-28T03:52:00.636Z,12.28
2023-08-28T03:54:29.199Z,12.29
2023-08-28T03:56:56.198Z,12.30
2023-08-28T03:59:23.252Z,12.32
2023-08-28T04:01:50.499Z,12.33
2023-08-28T04:04:17.996Z,12.36
2023-08-28T04:06:44.934Z,12.39
2023-08-28T04:09:11.558Z,12.43
2023-08-28T04:11:38.126Z,12.48
2023-08-28T04:14:04.821Z,12.51
2023-08-28T04:16:31.592Z,12.56
2023-08-28T04:18:58.317Z,12.59
2023-08-28T04:21:25.081Z,12.64
2023-08-28T04:23:51.664Z,12.70
2023-08-28T04:26:18.254Z,12.72
2023-08-28T04:28:44.905Z,12.76
2023-08-28T04:31:12.831Z,12.79
2023-08-28T04:33:39.573Z,12.79
2023-08-28T04:36:06.398Z,12.80
2023-08-28T04:38:33.093Z,12.80
2023-08-28T04:40:59.863Z,12.78
2023-08-28T04:43:26.566Z,12.78
2023-08-28T04:45:54.182Z,12.74
2023-08-28T04:48:20.903Z,12.72
2023-08-28T04:50:47.581Z,12.68
2023-08-28T04:53:14.175Z,12.66
2023-08-28T04:55:41.118Z,12.62
2023-08-28T04:58:07.933Z,12.60
2023-08-28T05:00:34.819Z,12.59
2023-08-28T05:03:01.719Z,12.58
2023-08-28T05:05:28.668Z,12.58
2023-08-28T05:07:55.303Z,12.57
2023-08-28T05:10:22.137Z,12.54
2023-08-28T05:12:48.761Z,12.51
2023-08-28T05:15:15.399Z,12.47
2023-08-28T05:17:42.130Z,12.47
2023-08-28T05:20:09.321Z,12.46
2023-08-28T05:22:35.998Z,12.47
2023-08-28T05:25:02.534Z,12.50
2023-08-28T05:27:29.201Z,12.52
2023-08-28T05:29:55.760Z,12.56
2023-08-28T05:32:22.376Z,12.62
2023-08-28T05:34:51.676Z,12.66
2023-08-28T05:37:18.968Z,12.70
2023-08-28T05:39:45.580Z,12.75
2023-08-28T05:42:12.205Z,12.79
2023-08-28T05:44:39.307Z,12.82
2023-08-28T05:47:06.496Z,12.88
2023-08-28T05:49:33.326Z,12.90
2023-08-28T05:51:59.928Z,12.95
2023-08-28T05:54:27.078Z,13.00
2023-08-28T05:56:53.705Z,13.09
2023-08-28T05:59:20.355Z,13.17
2023-08-28T06:01:47.267Z,13.22
2023-08-28T06:04:14.083Z,13.28
2023-08-28T06:06:40.731Z,13.35
2023-08-28T06:09:07.616Z,13.41
2023-08-28T06:11:34.679Z,13.50
2023-08-28T06:14:01.508Z,13.57
2023-08-28T06:16:28.236Z,13.62
2023-08-28T06:18:55.433Z,13.70
2023-08-28T06:21:22.115Z,13.76
2023-08-28T06:23:48.681Z,13.84
2023-08-28T06:26:15.245Z,13.93
2023-08-28T06:28:41.883Z,14.04
2023-08-28T06:31:08.531Z,14.12
2023-08-28T06:33:35.983Z,14.22
2023-08-28T06:36:03.458Z,14.33
2023-08-28T06:38:30.126Z,14.46
2023-08-28T06:40:57.078Z,14.61
2023-08-28T06:43:23.692Z,14.72
2023-08-28T06:45:50.316Z,14.81
2023-08-28T06:48:16.907Z,14.89
2023-08-28T06:50:43.567Z,14.97
2023-08-28T06:53:10.231Z,15.12
2023-08-28T06:55:37.892Z,15.38
2023-08-28T06:58:04.688Z,15.55
2023-08-28T07:00:31.541Z,15.64
2023-08-28T07:02:59.516Z,15.82
2023-08-28T07:05:26.445Z,16.21
2023-08-28T07:07:53.166Z,16.56
2023-08-28T07:10:19.874Z,16.80
2023-08-28T07:12:46.587Z,16.86
2023-08-28T07:17:56.842Z,16.85
2023-08-28T07:20:24.519Z,16.86
2023-08-28T07:22:53.114Z,16.85
2023-08-28T07:25:22.974Z,16.79
2023-08-28T07:27:50.849Z,16.75
2023-08-28T07:30:18.333Z,16.77
2023-08-28T07:32:45.223Z,16.75
2023-08-28T07:35:12.014Z,16.78
2023-08-28T07:37:38.805Z,16.80
2023-08-28T07:40:07.228Z,16.83
2023-08-28T07:42:34.568Z,16.84
2023-08-28T07:45:01.333Z,16.84
2023-08-28T07:47:28.592Z,16.83
2023-08-28T07:49:55.758Z,16.81
2023-08-28T07:52:22.426Z,16.84
2023-08-28T07:54:49.088Z,16.88
2023-08-28T07:57:15.734Z,16.95
2023-08-28T07:59:42.438Z,17.01
2023-08-28T08:02:09.260Z,17.09
2023-08-28T08:04:37.498Z,17.23
2023-08-28T08:07:04.450Z,17.34
2023-08-28T08:09:31.132Z,17.44
2023-08-28T08:11:57.873Z,17.53
2023-08-28T08:14:24.560Z,17.61
2023-08-28T08:16:51.254Z,17.66
2023-08-28T08:19:18.072Z,17.71
2023-08-28T08:21:44.852Z,17.72
2023-08-28T08:24:11.487Z,17.71
2023-08-28T08:26:38.111Z,17.74
2023-08-28T08:29:05.475Z,17.73
2023-08-28T08:31:32.395Z,17.78
2023-08-28T08:33:59.149Z,17.90
2023-08-28T08:36:25.695Z,17.99
2023-08-28T08:38:52.385Z,18.10
2023-08-28T08:41:19.054Z,18.27
2023-08-28T08:43:45.722Z,18.42
2023-08-28T08:46:13.094Z,18.62
2023-08-28T08:48:43.018Z,18.82
2023-08-28T08:51:09.807Z,18.96
2023-08-28T08:56:24.355Z,19.18
2023-08-28T08:58:51.456Z,19.24
2023-08-28T09:01:18.180Z,19.27
2023-08-28T09:03:45.780Z,19.34
2023-08-28T09:06:13.309Z,19.41
2023-08-28T09:08:43.583Z,19.57
2023-08-28T09:11:10.316Z,19.71
2023-08-28T09:13:38.641Z,19.78
2023-08-28T09:16:06.160Z,19.84
2023-08-28T09:18:32.977Z,19.81
2023-08-28T09:21:08.905Z,19.85
2023-08-28T09:23:43.733Z,19.87
2023-08-28T09:26:14.374Z,19.96
2023-08-28T09:28:41.039Z,20.19
2023-08-28T09:31:07.868Z,20.46
2023-08-28T09:34:01.354Z,20.65
2023-08-28T09:36:36.034Z,20.89
2023-08-28T09:39:05.306Z,21.14
2023-08-28T09:41:49.684Z,21.34
2023-08-28T09:44:18.044Z,21.46
2023-08-28T09:46:46.825Z,21.62
2023-08-28T09:49:14.942Z,21.69
2023-08-28T09:51:47.267Z,21.69
2023-08-28T09:54:16.545Z,21.66
2023-08-28T09:56:44.664Z,21.67
2023-08-28T09:59:13.358Z,21.67
2023-08-28T10:01:40.226Z,21.58
2023-08-28T10:04:08.845Z,21.56
2023-08-28T10:06:39.377Z,21.52
2023-08-28T10:09:11.963Z,21.55
2023-08-28T10:11:40.288Z,21.64
2023-08-28T10:14:08.212Z,21.77
2023-08-28T10:16:43.036Z,21.87
2023-08-28T10:21:48.966Z,22.21
2023-08-28T10:24:18.727Z,22.40
2023-08-28T10:26:47.764Z,22.52
2023-08-28T10:29:18.413Z,22.62
2023-08-28T10:31:46.032Z,22.68
2023-08-28T10:34:13.260Z,22.69
2023-08-28T10:37:00.518Z,22.71
2023-08-28T10:39:29.301Z,22.56
2023-08-28T10:41:57.209Z,22.44
2023-08-28T10:44:24.595Z,22.25
2023-08-28T10:46:53.156Z,22.12
2023-08-28T10:49:20.034Z,22.12
2023-08-28T10:51:47.320Z,22.04
2023-08-28T10:54:13.968Z,21.92
2023-08-28T10:56:41.244Z,21.75
2023-08-28T10:59:28.012Z,21.51
2023-08-28T11:01:57.111Z,21.42
2023-08-28T11:04:25.840Z,21.29
2023-08-28T11:06:52.775Z,21.14
2023-08-28T11:09:38.161Z,20.99
2023-08-28T11:14:56.717Z,21.25
2023-08-28T11:17:25.720Z,21.04
2023-08-28T11:25:35.412Z,21.23
2023-08-28T11:28:02.341Z,21.34
2023-08-28T11:30:30.530Z,21.43
2023-08-28T11:32:57.897Z,21.50
2023-08-28T11:35:24.990Z,21.61
2023-08-28T11:37:54.346Z,21.77
2023-08-28T11:40:23.685Z,21.91
2023-08-28T11:42:51.480Z,22.02
2023-08-28T11:45:22.933Z,22.02
2023-08-28T11:47:52.380Z,22.09
2023-08-28T11:50:19.627Z,22.20
2023-08-28T11:52:50.693Z,22.25
2023-08-28T11:55:17.531Z,22.34
2023-08-28T11:57:45.241Z,22.42
2023-08-28T12:00:16.131Z,22.44
2023-08-28T12:02:45.487Z,22.47
2023-08-28T12:05:13.884Z,22.51
2023-08-28T12:07:44.476Z,22.52
2023-08-28T12:10:13.112Z,22.52
2023-08-28T12:12:39.940Z,22.47
2023-08-28T12:15:07.914Z,22.38
2023-08-28T12:17:34.580Z,22.26
2023-08-28T12:20:01.502Z,22.14
2023-08-28T12:22:28.492Z,22.04
2023-08-28T12:24:59.320Z,21.95
2023-08-28T12:27:28.513Z,21.86
2023-08-28T12:29:55.735Z,21.71
2023-08-28T12:32:22.659Z,21.69
2023-08-28T12:34:49.810Z,21.65
2023-08-28T12:37:17.226Z,21.66
2023-08-28T12:39:48.102Z,21.68
2023-08-28T12:42:15.288Z,21.71
2023-08-28T12:44:44.124Z,21.73
2023-08-28T12:47:13.149Z,21.75
2023-08-28T12:49:42.339Z,21.76
2023-08-28T12:52:09.641Z,21.72
2023-08-28T12:54:37.323Z,21.62
2023-08-28T12:57:05.389Z,21.51
2023-08-28T12:59:32.867Z,21.43
2023-08-28T13:02:00.538Z,21.39
2023-08-28T13:04:28.345Z,21.39
2023-08-28T13:06:55.415Z,21.38
2023-08-28T13:09:24.628Z,21.37
2023-08-28T13:11:52.084Z,21.45
2023-08-28T13:14:18.957Z,21.51
2023-08-28T13:16:45.678Z,21.59
2023-08-28T13:19:12.331Z,21.66
2023-08-28T13:21:39.025Z,21.77
2023-08-28T13:24:06.507Z,21.89
2023-08-28T13:26:33.311Z,22.03
2023-08-28T13:29:00.839Z,22.09
2023-08-28T13:31:27.585Z,22.11
2023-08-28T13:33:54.834Z,22.15
2023-08-28T13:36:21.716Z,22.18
2023-08-28T13:38:49.770Z,22.27
2023-08-28T13:41:16.681Z,22.29
2023-08-28T13:43:43.294Z,22.28
2023-08-28T13:46:09.972Z,22.28
2023-08-28T13:48:36.736Z,22.24
2023-08-28T13:51:05.911Z,22.23
2023-08-28T13:53:32.546Z,22.23
2023-08-28T13:55:59.516Z,22.31
2023-08-28T13:58:26.277Z,22.46
2023-08-28T14:00:58.326Z,22.60
2023-08-28T14:03:27.412Z,22.76
2023-08-28T14:05:57.520Z,22.85
2023-08-28T14:08:24.646Z,22.97
2023-08-28T14:10:51.297Z,23.06
2023-08-28T14:13:17.919Z,23.08
2023-08-28T14:15:48.905Z,23.04
2023-08-28T14:18:21.266Z,23.03
2023-08-28T14:20:52.680Z,23.06
2023-08-28T14:23:21.460Z,23.10
2023-08-28T14:25:49.322Z,23.09
2023-08-28T14:28:21.818Z,23.03
2023-08-28T14:30:50.475Z,22.97
2023-08-28T14:33:19.982Z,22.91
2023-08-28T14:35:46.778Z,22.87
2023-08-28T14:38:15.101Z,22.88
2023-08-28T14:40:47.647Z,22.89
2023-08-28T14:43:14.775Z,22.88
2023-08-28T14:45:41.915Z,22.86
2023-08-28T14:48:08.962Z,22.79
2023-08-28T14:50:35.984Z,22.76
2023-08-28T14:53:03.098Z,22.72
2023-08-28T14:55:29.966Z,22.65
2023-08-28T14:57:56.633Z,22.58
2023-08-28T15:00:23.783Z,22.50
2023-08-28T15:02:50.765Z,22.46
2023-08-28T15:05:18.064Z,22.42
2023-08-28T15:07:44.762Z,22.38
2023-08-28T15:10:11.389Z,22.32
2023-08-28T15:12:38.031Z,22.25
2023-08-28T15:15:05.711Z,22.06
2023-08-28T15:17:32.554Z,21.96
2023-08-28T15:20:02.875Z,21.79
2023-08-28T15:22:32.607Z,21.68
2023-08-28T15:25:01.404Z,21.60
2023-08-28T15:27:30.688Z,21.55
2023-08-28T15:29:58.703Z,21.51
2023-08-28T15:32:27.071Z,21.50
2023-08-28T15:34:53.801Z,21.52
2023-08-28T15:37:20.876Z,21.52
2023-08-28T15:39:48.031Z,21.52
2023-08-28T15:42:14.728Z,21.53
2023-08-28T15:44:41.623Z,21.47
2023-08-28T15:47:08.904Z,21.43
2023-08-28T15:49:37.297Z,21.40
2023-08-28T15:52:04.797Z,21.34
2023-08-28T15:54:31.636Z,21.30
2023-08-28T15:56:58.418Z,21.30
2023-08-28T15:59:26.650Z,21.27
2023-08-28T16:01:55.900Z,21.25
2023-08-28T16:04:23.018Z,21.24
2023-08-28T16:06:49.702Z,21.22
2023-08-28T16:09:16.420Z,21.19
2023-08-28T16:11:53.181Z,21.11
2023-08-28T16:14:19.815Z,21.11
2023-08-28T16:16:46.762Z,21.11
2023-08-28T16:19:15.189Z,21.07
2023-08-28T16:21:42.116Z,21.03
2023-08-28T16:24:09.632Z,20.99
2023-08-28T16:26:36.523Z,20.94
2023-08-28T16:29:09.320Z,20.85
2023-08-28T16:31:36.755Z,20.79
2023-08-28T16:34:09.070Z,20.74
2023-08-28T16:36:36.196Z,20.70
2023-08-28T16:39:03.663Z,20.68
2023-08-28T16:41:30.396Z,20.61
2023-08-28T16:43:57.229Z,20.49
2023-08-28T16:46:23.955Z,20.39
2023-08-28T16:48:55.626Z,20.27
2023-08-28T16:51:22.309Z,20.23
2023-08-28T16:53:49.805Z,20.21
2023-08-28T16:56:17.789Z,20.16
2023-08-28T16:58:44.675Z,20.14
2023-08-28T17:01:11.271Z,20.12
2023-08-28T17:03:38.054Z,20.10
2023-08-28T17:06:05.059Z,20.08
2023-08-28T17:08:31.791Z,20.07
2023-08-28T17:10:58.650Z,20.06
2023-08-28T17:13:25.939Z,20.03
2023-08-28T17:15:53.118Z,19.97
2023-08-28T17:18:20.588Z,19.95
2023-08-28T17:20:47.216Z,19.90
2023-08-28T17:23:14.121Z,19.88
2023-08-28T17:25:41.449Z,19.86
2023-08-28T17:28:10.402Z,19.80
2023-08-28T17:30:38.015Z,19.75
2023-08-28T17:33:05.025Z,19.72
2023-08-28T17:35:31.765Z,19.68
2023-08-28T17:37:59.584Z,19.66
2023-08-28T17:40:26.273Z,19.61
2023-08-28T17:42:52.902Z,19.55
2023-08-28T17:45:19.647Z,19.48
2023-08-28T17:47:46.289Z,19.44
2023-08-28T17:50:13.132Z,19.40
2023-08-28T17:52:39.827Z,19.39
2023-08-28T17:55:06.822Z,19.35
2023-08-28T17:57:33.651Z,19.34
2023-08-28T18:00:00.518Z,19.29
2023-08-28T18:02:38.775Z,19.24
2023-08-28T18:05:07.441Z,19.23
2023-08-28T18:07:34.189Z,19.19
2023-08-28T18:10:00.842Z,19.16
2023-08-28T18:12:28.089Z,19.13
2023-08-28T18:14:54.921Z,19.10
2023-08-28T18:17:21.552Z,19.06
2023-08-28T18:19:48.197Z,19.03
2023-08-28T18:22:14.963Z,19.01
2023-08-28T18:24:41.616Z,18.99
2023-08-28T18:27:08.279Z,18.93
2023-08-28T18:29:35.057Z,18.89
2023-08-28T18:32:01.812Z,18.87
2023-08-28T18:34:28.787Z,18.83
2023-08-28T18:36:55.459Z,18.80
2023-08-28T18:39:22.237Z,18.78
2023-08-28T18:42:03.300Z,18.74
2023-08-28T18:44:36.439Z,18.71
2023-08-28T18:47:05.183Z,18.68
2023-08-28T18:49:31.824Z,18.65
2023-08-28T18:51:58.631Z,18.61
2023-08-28T18:54:25.250Z,18.56
2023-08-28T18:56:51.899Z,18.54
2023-08-28T18:59:18.602Z,18.50
2023-08-28T19:01:45.288Z,18.46
2023-08-28T19:04:12.134Z,18.43
2023-08-28T19:06:38.931Z,18.39
2023-08-28T19:09:05.985Z,18.35
2023-08-28T19:11:32.844Z,18.32
2023-08-28T19:13:59.605Z,18.29
2023-08-28T19:16:26.290Z,18.24
2023-08-28T19:18:53.282Z,18.21
2023-08-28T19:21:20.113Z,18.19
2023-08-28T19:23:46.780Z,18.15
2023-08-28T19:26:13.601Z,18.13
2023-08-28T19:28:40.747Z,18.11
2023-08-28T19:31:07.463Z,18.09
2023-08-28T19:33:34.308Z,18.06
2023-08-28T19:36:01.009Z,18.06
2023-08-28T19:38:27.753Z,18.02
2023-08-28T19:40:54.349Z,17.99
2023-08-28T19:43:21.373Z,17.96
2023-08-28T19:45:48.041Z,17.94
2023-08-28T19:48:14.815Z,17.91
2023-08-28T19:50:41.579Z,17.90
2023-08-28T19:53:08.630Z,17.86
2023-08-28T19:55:36.595Z,17.85
2023-08-28T19:58:04.275Z,17.82
2023-08-28T20:00:31.339Z,17.77
2023-08-28T20:02:59.293Z,17.73
2023-08-28T20:05:26.015Z,17.71
2023-08-28T20:07:53.224Z,17.70
2023-08-28T20:10:20.119Z,17.68
2023-08-28T20:12:48.404Z,17.66
2023-08-28T20:15:16.936Z,17.65
2023-08-28T20:17:43.826Z,17.63
2023-08-28T20:20:12.944Z,17.63
2023-08-28T20:22:42.453Z,17.62
2023-08-28T20:25:09.354Z,17.57
2023-08-28T20:27:36.045Z,17.54
2023-08-28T20:30:02.774Z,17.50
2023-08-28T20:32:29.486Z,17.47
2023-08-28T20:34:56.187Z,17.44
2023-08-28T20:37:22.872Z,17.41
2023-08-28T20:39:49.759Z,17.38
2023-08-28T20:42:17.190Z,17.35
2023-08-28T20:44:44.017Z,17.33
2023-08-28T20:47:10.847Z,17.30
2023-08-28T20:49:37.568Z,17.28
2023-08-28T20:52:04.840Z,17.25
2023-08-28T20:54:31.428Z,17.20
2023-08-28T20:56:58.066Z,17.18
2023-08-28T20:59:25.073Z,17.14
2023-08-28T21:01:51.747Z,17.12
2023-08-28T21:04:18.466Z,17.08
2023-08-28T21:06:45.393Z,17.07
2023-08-28T21:09:12.042Z,17.05
2023-08-28T21:11:38.786Z,17.02
2023-08-28T21:14:05.499Z,17.01
2023-08-28T21:16:32.531Z,16.99
2023-08-28T21:18:59.268Z,16.95
2023-08-28T21:21:25.952Z,16.92
2023-08-28T21:23:52.568Z,16.91
2023-08-28T21:26:19.237Z,16.90
2023-08-28T21:28:46.044Z,16.89
2023-08-28T21:31:12.754Z,16.88
2023-08-28T21:33:39.652Z,16.87
2023-08-28T21:36:07.231Z,16.87
2023-08-28T21:38:35.606Z,16.85
2023-08-28T21:41:06.782Z,16.85
2023-08-28T21:43:35.213Z,16.80
2023-08-28T21:46:04.581Z,16.78
2023-08-28T21:48:32.817Z,16.74
2023-08-28T21:51:01.202Z,16.72
2023-08-28T21:53:28.140Z,16.70
2023-08-28T21:55:55.296Z,16.66
2023-08-28T21:58:22.634Z,16.65
2023-08-28T22:00:49.808Z,16.64
2023-08-28T22:03:17.260Z,16.63
2023-08-28T22:05:47.041Z,16.63
2023-08-28T22:08:14.344Z,16.44
2023-08-28T22:10:43.087Z,16.60
2023-08-28T22:13:10.643Z,16.61
2023-08-28T22:15:41.466Z,16.62
2023-08-28T22:18:11.144Z,16.62
2023-08-28T22:20:42.699Z,16.61
2023-08-28T22:23:10.955Z,16.61
2023-08-28T22:25:39.895Z,16.62
2023-08-28T22:28:07.047Z,16.62
2023-08-28T22:30:34.855Z,16.63
2023-08-28T22:33:01.721Z,16.61
2023-08-28T22:35:28.606Z,16.60
2023-08-28T22:37:55.301Z,16.57
2023-08-28T22:40:22.400Z,16.56
2023-08-28T22:42:49.772Z,16.53
2023-08-28T22:45:17.533Z,16.52
2023-08-28T22:47:44.491Z,16.50
2023-08-28T22:50:11.202Z,16.47
2023-08-28T22:52:37.907Z,16.45
2023-08-28T22:55:04.818Z,16.43
2023-08-28T22:57:31.749Z,16.41
2023-08-28T22:59:59.968Z,16.39
2023-08-28T23:02:26.666Z,16.38
2023-08-28T23:04:53.264Z,16.36
2023-08-28T23:07:20.356Z,16.34
2023-08-28T23:09:46.996Z,16.33
2023-08-28T23:12:13.645Z,16.31
2023-08-28T23:14:40.214Z,16.30
2023-08-28T23:17:07.100Z,16.30
2023-08-28T23:19:33.883Z,16.29
2023-08-28T23:22:00.540Z,16.29
2023-08-28T23:24:27.203Z,16.29
2023-08-28T23:26:55.681Z,16.28
2023-08-28T23:29:22.348Z,16.28
2023-08-28T23:31:49.527Z,16.27
2023-08-28T23:34:16.845Z,16.25
2023-08-28T23:36:45.366Z,16.25
2023-08-28T23:39:12.689Z,16.24
2023-08-28T23:41:39.475Z,16.23
2023-08-28T23:44:06.320Z,16.22
2023-08-28T23:46:32.913Z,16.21
2023-08-28T23:48:59.627Z,16.19
2023-08-28T23:51:26.263Z,16.18
2023-08-28T23:53:52.886Z,16.18
2023-08-28T23:56:19.544Z,16.17
2023-08-28T23:58:46.174Z,16.16
